Time;durP1;ratioP1;P1;durP2;ratioP2;P2;SDS_P1;SDS_P2;PMS_P1;PMS_P2;Temp;Humidity;BMP_temperature;BMP_pressure;BME280_temperature;BME280_humidity;BME280_pressure;Samples;Min_cycle;Max_cycle;Signal;HPM_P1;HPM_P2
2023/03/04 00:00:08;;;;;;;22.08;12.40;;;;;;;2.22;100.00;100931.63;5060643;28;20024;-72
2023/03/04 00:02:33;;;;;;;22.48;12.82;;;;;;;2.22;100.00;100934.22;5061935;28;20024;-72
2023/03/04 00:04:59;;;;;;;21.63;12.88;;;;;;;2.22;100.00;100926.50;5063333;28;20055;-72
2023/03/04 00:07:24;;;;;;;21.73;13.95;;;;;;;2.19;100.00;100931.81;5062544;28;20455;-72
2023/03/04 00:09:50;;;;;;;22.88;12.80;;;;;;;2.19;100.00;100929.22;5060353;28;20037;-72
2023/03/04 00:12:15;;;;;;;26.40;12.98;;;;;;;2.18;100.00;100937.03;5060473;28;20162;-71
2023/03/04 00:14:40;;;;;;;19.85;12.70;;;;;;;2.21;100.00;100947.97;5063657;28;20040;-72
2023/03/04 00:17:06;;;;;;;22.60;13.20;;;;;;;2.27;100.00;100939.94;5061998;28;20024;-71
2023/03/04 00:19:31;;;;;;;22.67;13.23;;;;;;;2.35;100.00;100942.13;5060229;28;20028;-72
2023/03/04 00:21:57;;;;;;;21.27;12.85;;;;;;;2.36;100.00;100936.06;5056558;28;20063;-72
2023/03/04 00:24:23;;;;;;;22.40;13.32;;;;;;;2.35;100.00;100938.72;5056665;28;20039;-72
2023/03/04 00:26:49;;;;;;;19.85;12.82;;;;;;;2.29;100.00;100938.13;5063246;28;20029;-72
2023/03/04 00:29:15;;;;;;;23.05;13.73;;;;;;;2.25;100.00;100934.06;5061917;28;20106;-72
2023/03/04 00:31:40;;;;;;;22.35;11.88;;;;;;;2.32;100.00;100942.28;5059228;28;20437;-72
2023/03/04 00:34:05;;;;;;;20.70;12.07;;;;;;;2.33;100.00;100941.38;5061680;28;20492;-72
2023/03/04 00:36:31;;;;;;;19.38;12.77;;;;;;;2.31;100.00;100941.44;5058185;28;20043;-72
2023/03/04 00:38:56;;;;;;;20.80;12.88;;;;;;;2.26;100.00;100940.03;5053335;28;20052;-72
2023/03/04 00:41:22;;;;;;;21.40;12.38;;;;;;;2.23;100.00;100941.00;5052604;28;20048;-72
2023/03/04 00:43:47;;;;;;;17.88;10.98;;;;;;;2.17;100.00;100936.19;5052448;28;20036;-72
2023/03/04 00:46:13;;;;;;;22.48;12.15;;;;;;;2.21;100.00;100927.41;5056795;28;20037;-72
2023/03/04 00:48:38;;;;;;;25.88;13.60;;;;;;;2.58;100.00;100922.88;5059707;28;20633;-72
2023/03/04 00:51:04;;;;;;;24.45;12.73;;;;;;;2.83;100.00;100925.78;5063499;28;20050;-72
2023/03/04 00:53:29;;;;;;;27.23;13.15;;;;;;;2.74;100.00;100920.31;5062015;28;20031;-71
2023/03/04 00:55:55;;;;;;;21.77;13.77;;;;;;;2.65;100.00;100908.78;5059420;28;20032;-72
2023/03/04 00:58:20;;;;;;;25.30;13.07;;;;;;;3.06;100.00;100910.81;5066694;28;20059;-72
2023/03/04 01:00:46;;;;;;;22.75;13.25;;;;;;;3.35;100.00;100902.25;5064257;28;20047;-72
2023/03/04 01:03:11;;;;;;;22.65;13.82;;;;;;;3.24;100.00;100897.75;5067183;28;20111;-72
2023/03/04 01:05:36;;;;;;;22.00;11.65;;;;;;;3.06;100.00;100890.22;5055622;28;20040;-72
2023/03/04 01:08:03;;;;;;;21.88;13.52;;;;;;;2.91;100.00;100895.28;5060052;28;20079;-72
2023/03/04 01:10:28;;;;;;;26.80;14.02;;;;;;;2.75;100.00;100897.06;5066388;28;20048;-72
2023/03/04 01:12:54;;;;;;;19.83;12.07;;;;;;;2.71;100.00;100895.59;5050030;28;20051;-72
2023/03/04 01:15:19;;;;;;;21.27;12.68;;;;;;;2.61;100.00;100890.09;5058381;28;20389;-72
2023/03/04 01:17:45;;;;;;;20.13;12.20;;;;;;;2.60;100.00;100890.19;5063899;28;20074;-72
2023/03/04 01:20:11;;;;;;;27.63;14.30;;;;;;;2.59;100.00;100885.94;5063276;28;20017;-72
2023/03/04 01:22:37;;;;;;;25.23;13.13;;;;;;;2.57;100.00;100882.63;5065484;28;20032;-72
2023/03/04 01:25:03;;;;;;;26.02;13.65;;;;;;;2.54;100.00;100885.38;5063815;28;20503;-72
2023/03/04 01:27:28;;;;;;;22.70;13.13;;;;;;;2.56;100.00;100883.53;5064928;28;20032;-72
2023/03/04 01:29:53;;;;;;;23.88;13.13;;;;;;;2.47;100.00;100876.31;5062831;28;20044;-72
2023/03/04 01:32:19;;;;;;;22.45;13.05;;;;;;;2.36;100.00;100876.91;5065362;28;20035;-72
2023/03/04 01:34:44;;;;;;;26.65;13.90;;;;;;;2.27;100.00;100878.25;5059516;28;20488;-72
2023/03/04 01:37:10;;;;;;;23.48;13.82;;;;;;;2.23;100.00;100879.31;5060416;28;20029;-72
2023/03/04 01:39:35;;;;;;;23.35;14.05;;;;;;;2.16;100.00;100875.41;5059398;28;20143;-72
2023/03/04 01:42:01;;;;;;;23.05;13.77;;;;;;;2.13;100.00;100869.59;5057276;28;20087;-72
2023/03/04 01:44:27;;;;;;;21.08;12.60;;;;;;;2.11;100.00;100864.53;5061368;28;20025;-72
2023/03/04 01:46:54;;;;;;;24.77;13.52;;;;;;;2.12;100.00;100861.03;5061391;28;20457;-72
2023/03/04 01:49:21;;;;;;;22.83;13.75;;;;;;;2.09;100.00;100857.81;5058436;28;20051;-72
2023/03/04 01:51:53;;;;;;;23.10;12.27;;;;;;;2.02;100.00;100859.88;5060693;28;20395;-72
2023/03/04 01:54:19;;;;;;;22.27;13.05;;;;;;;2.00;100.00;100851.41;5059269;28;20036;-72
2023/03/04 01:56:47;;;;;;;21.02;13.10;;;;;;;2.06;100.00;100851.09;5063470;28;20037;-72
2023/03/04 01:59:14;;;;;;;22.85;13.52;;;;;;;2.06;100.00;100851.09;5063391;28;20029;-72
2023/03/04 02:01:43;;;;;;;22.52;13.07;;;;;;;1.99;100.00;100844.59;5066593;28;20028;-72
2023/03/04 02:04:09;;;;;;;22.25;13.50;;;;;;;1.94;100.00;100841.44;5058339;28;20040;-72
2023/03/04 02:06:37;;;;;;;27.13;15.15;;;;;;;1.95;100.00;100838.78;5065784;28;20116;-72
2023/03/04 02:09:03;;;;;;;23.52;13.65;;;;;;;1.94;100.00;100837.13;5065446;28;20051;-72
2023/03/04 02:11:28;;;;;;;21.65;13.35;;;;;;;1.86;100.00;100836.72;5060775;28;20504;-72
2023/03/04 02:13:54;;;;;;;22.33;13.15;;;;;;;1.81;100.00;100831.00;5064935;28;20523;-72
2023/03/04 02:16:19;;;;;;;25.90;14.70;;;;;;;1.73;100.00;100832.31;5062064;28;20036;-72
2023/03/04 02:18:45;;;;;;;20.17;13.88;;;;;;;1.68;100.00;100829.97;5058286;28;20024;-72
2023/03/04 02:21:22;;;;;;;22.17;12.80;;;;;;;1.60;100.00;100827.78;5061265;28;20434;-72
2023/03/04 02:23:56;;;;;;;25.08;15.05;;;;;;;1.43;100.00;100822.66;5057292;28;20037;-72
2023/03/04 02:26:33;;;;;;;26.33;13.90;;;;;;;1.48;100.00;100822.44;5061861;28;20039;-72
2023/03/04 02:29:00;;;;;;;26.92;14.95;;;;;;;1.49;100.00;100822.38;5062152;28;20036;-72
2023/03/04 02:31:26;;;;;;;26.40;13.82;;;;;;;1.53;100.00;100826.44;5059668;28;20426;-72
2023/03/04 02:33:53;;;;;;;27.38;14.00;;;;;;;1.56;100.00;100822.88;5065407;28;20027;-72
2023/03/04 02:36:19;;;;;;;24.25;13.88;;;;;;;1.57;100.00;100817.66;5045489;28;20769;-72
2023/03/04 02:38:45;;;;;;;26.80;15.00;;;;;;;1.48;100.00;100813.00;5061826;28;20594;-72
2023/03/04 02:41:15;;;;;;;28.38;15.73;;;;;;;1.34;100.00;100818.03;5061714;28;20040;-72
2023/03/04 02:43:42;;;;;;;28.67;15.40;;;;;;;1.31;100.00;100818.19;5060192;28;20033;-72
2023/03/04 02:46:11;;;;;;;25.33;15.10;;;;;;;1.29;100.00;100825.97;5049739;28;20379;-72
2023/03/04 02:48:36;;;;;;;25.27;15.10;;;;;;;1.32;100.00;100824.97;5066531;28;20028;-72
2023/03/04 02:51:02;;;;;;;26.38;15.00;;;;;;;1.33;100.00;100821.50;5068512;28;20509;-72
2023/03/04 02:53:27;;;;;;;25.08;15.60;;;;;;;1.32;100.00;100827.53;5062657;28;20035;-72
2023/03/04 02:55:53;;;;;;;31.23;15.63;;;;;;;1.31;100.00;100821.56;5064701;28;20553;-72
2023/03/04 02:58:18;;;;;;;29.38;15.55;;;;;;;1.31;100.00;100826.72;5046038;28;20101;-72
2023/03/04 03:00:43;;;;;;;27.02;15.48;;;;;;;1.25;100.00;100828.75;5065950;28;20075;-72
2023/03/04 03:03:09;;;;;;;23.73;14.65;;;;;;;1.23;100.00;100823.69;5065611;28;20043;-72
2023/03/04 03:05:36;;;;;;;29.25;16.13;;;;;;;1.24;100.00;100819.38;5065912;28;20889;-72
2023/03/04 03:08:01;;;;;;;23.98;14.38;;;;;;;1.19;100.00;100816.22;5067506;28;20036;-72
2023/03/04 03:10:27;;;;;;;27.63;14.95;;;;;;;1.18;100.00;100815.38;5063497;28;20169;-72
2023/03/04 03:12:52;;;;;;;24.08;14.75;;;;;;;1.17;100.00;100815.47;5062355;28;20044;-72
2023/03/04 03:15:18;;;;;;;27.58;15.38;;;;;;;1.16;100.00;100811.25;5067526;28;20029;-72
2023/03/04 03:17:44;;;;;;;30.13;15.43;;;;;;;1.14;100.00;100818.19;5065063;28;20029;-72
2023/03/04 03:20:11;;;;;;;26.52;15.43;;;;;;;1.07;100.00;100814.25;5068719;28;20028;-72
2023/03/04 03:22:37;;;;;;;27.60;16.08;;;;;;;1.03;100.00;100823.00;5063268;28;20031;-72
2023/03/04 03:25:03;;;;;;;28.90;15.27;;;;;;;1.08;100.00;100813.34;5063564;28;20036;-71
2023/03/04 03:27:29;;;;;;;29.08;16.10;;;;;;;1.15;100.00;100819.84;5064828;28;20523;-72
2023/03/04 03:29:54;;;;;;;27.80;15.13;;;;;;;1.13;100.00;100821.66;5063645;28;20029;-72
2023/03/04 03:32:20;;;;;;;27.35;16.38;;;;;;;1.09;100.00;100820.13;5062562;28;20484;-72
2023/03/04 03:34:45;;;;;;;29.90;16.73;;;;;;;1.00;100.00;100816.28;5063725;28;20472;-72
2023/03/04 03:37:11;;;;;;;26.77;14.73;;;;;;;0.97;100.00;100812.13;5062814;28;20552;-72
2023/03/04 03:39:36;;;;;;;27.73;16.13;;;;;;;1.09;100.00;100826.09;5060480;28;20472;-71
2023/03/04 03:42:01;;;;;;;27.63;14.43;;;;;;;1.05;100.00;100814.31;5061051;28;20540;-71
2023/03/04 03:44:27;;;;;;;24.17;14.35;;;;;;;0.99;100.00;100815.44;5062052;28;20654;-71
2023/03/04 03:46:52;;;;;;;27.15;14.55;;;;;;;0.96;100.00;100817.34;5067884;28;20032;-71
2023/03/04 03:49:18;;;;;;;25.40;14.65;;;;;;;0.90;100.00;100805.66;5064585;28;20029;-72
2023/03/04 03:51:43;;;;;;;26.35;14.90;;;;;;;0.90;100.00;100808.22;5065596;28;20028;-72
2023/03/04 03:54:09;;;;;;;30.13;14.90;;;;;;;0.86;100.00;100806.72;5065682;28;20048;-72
2023/03/04 03:56:34;;;;;;;27.88;15.60;;;;;;;0.80;100.00;100804.44;5065338;28;20036;-72
2023/03/04 03:59:00;;;;;;;30.55;15.05;;;;;;;0.81;100.00;100807.84;5064901;28;20036;-72
2023/03/04 04:01:25;;;;;;;24.88;14.77;;;;;;;0.81;100.00;100811.25;5065335;28;20040;-72
2023/03/04 04:03:51;;;;;;;23.70;13.98;;;;;;;0.80;100.00;100812.16;5061874;28;20111;-72
2023/03/04 04:06:16;;;;;;;29.35;15.68;;;;;;;0.79;100.00;100805.34;5066452;28;20031;-72
2023/03/04 04:08:42;;;;;;;26.90;15.13;;;;;;;0.88;100.00;100816.91;5057978;28;20638;-72
2023/03/04 04:11:09;;;;;;;31.52;17.00;;;;;;;1.51;100.00;100802.56;5061196;28;20073;-72
2023/03/04 04:13:35;;;;;;;27.05;14.75;;;;;;;1.84;100.00;100802.56;5062946;28;20024;-71
2023/03/04 04:16:00;;;;;;;25.17;13.77;;;;;;;1.62;100.00;100805.44;5049026;28;20048;-72
2023/03/04 04:18:26;;;;;;;30.25;15.95;;;;;;;1.54;100.00;100801.59;5059431;28;20468;-72
2023/03/04 04:20:52;;;;;;;30.90;15.73;;;;;;;2.26;100.00;100807.16;5061147;28;20029;-72
2023/03/04 04:23:17;;;;;;;23.83;14.43;;;;;;;2.24;100.00;100803.84;5055147;28;20033;-72
2023/03/04 04:25:43;;;;;;;22.25;12.05;;;;;;;2.05;100.00;100800.59;5061073;28;20051;-72
2023/03/04 04:28:08;;;;;;;29.63;14.43;;;;;;;1.91;100.00;100805.63;5061645;28;20044;-71
2023/03/04 04:30:34;;;;;;;24.13;14.63;;;;;;;1.88;100.00;100808.38;5064865;28;20123;-72
2023/03/04 04:33:00;;;;;;;27.63;14.50;;;;;;;1.74;100.00;100816.81;5062561;28;20039;-72
2023/03/04 04:35:27;;;;;;;26.73;14.57;;;;;;;1.62;100.00;100805.44;5064609;28;20048;-72
2023/03/04 04:37:53;;;;;;;26.88;14.70;;;;;;;1.52;100.00;100803.41;5061130;28;20044;-72
2023/03/04 04:40:19;;;;;;;24.45;14.57;;;;;;;1.49;100.00;100804.38;5061095;28;20069;-72
2023/03/04 04:42:44;;;;;;;27.38;14.52;;;;;;;1.39;100.00;100807.53;5063806;28;20463;-72
2023/03/04 04:45:10;;;;;;;32.72;14.40;;;;;;;1.33;100.00;100803.53;5065438;28;20037;-72
2023/03/04 04:47:35;;;;;;;24.02;14.48;;;;;;;1.20;100.00;100805.88;5062940;28;20024;-72
2023/03/04 04:50:01;;;;;;;26.05;13.88;;;;;;;1.14;100.00;100807.91;5065264;28;20090;-72
2023/03/04 04:52:26;;;;;;;27.30;14.20;;;;;;;1.11;100.00;100811.47;5062193;28;20033;-72
2023/03/04 04:54:52;;;;;;;24.38;13.73;;;;;;;1.08;100.00;100805.66;5059045;28;20036;-72
2023/03/04 04:57:17;;;;;;;26.58;13.95;;;;;;;1.02;100.00;100808.50;5063348;28;20029;-72
2023/03/04 04:59:42;;;;;;;26.88;14.95;;;;;;;0.94;100.00;100804.63;5058858;28;20039;-72
2023/03/04 05:02:08;;;;;;;32.88;14.95;;;;;;;0.91;100.00;100816.75;5062273;28;20061;-72
2023/03/04 05:04:33;;;;;;;25.05;14.90;;;;;;;0.91;100.00;100809.06;5059559;28;20340;-72
2023/03/04 05:06:59;;;;;;;30.00;15.27;;;;;;;0.96;100.00;100818.16;5063470;28;20024;-72
2023/03/04 05:09:24;;;;;;;23.58;13.43;;;;;;;0.98;100.00;100824.06;5058363;28;20036;-72
2023/03/04 05:11:49;;;;;;;24.85;13.48;;;;;;;0.96;100.00;100805.34;5064020;28;20045;-72
2023/03/04 05:14:15;;;;;;;29.45;14.85;;;;;;;0.92;100.00;100816.69;5060869;28;20032;-72
2023/03/04 05:16:40;;;;;;;27.75;14.13;;;;;;;0.87;100.00;100813.50;5061319;28;20146;-72
2023/03/04 05:19:06;;;;;;;28.42;14.80;;;;;;;0.88;100.00;100817.75;5060832;28;20108;-72
2023/03/04 05:21:31;;;;;;;23.27;13.55;;;;;;;0.82;100.00;100812.06;5061208;28;20108;-72
2023/03/04 05:23:57;;;;;;;26.20;13.55;;;;;;;0.71;100.00;100815.16;5041103;28;20040;-72
2023/03/04 05:26:22;;;;;;;23.70;14.02;;;;;;;0.63;100.00;100807.81;5051996;28;20037;-72
2023/03/04 05:28:48;;;;;;;30.38;15.05;;;;;;;0.60;100.00;100807.13;5058786;28;20040;-71
2023/03/04 05:31:14;;;;;;;27.88;15.23;;;;;;;0.63;100.00;100812.09;5054687;28;20105;-72
2023/03/04 05:33:39;;;;;;;27.90;16.15;;;;;;;0.61;100.00;100816.47;5062543;28;20032;-72
2023/03/04 05:36:06;;;;;;;30.25;16.05;;;;;;;0.62;100.00;100821.53;5059604;28;20036;-72
2023/03/04 05:38:32;;;;;;;27.20;16.15;;;;;;;0.61;100.00;100814.75;5061855;28;20028;-72
2023/03/04 05:41:00;;;;;;;26.38;16.63;;;;;;;0.58;100.00;100809.75;5058958;28;20024;-72
2023/03/04 05:43:27;;;;;;;32.13;14.88;;;;;;;0.62;100.00;100813.00;5063035;28;20032;-72
2023/03/04 05:45:53;;;;;;;33.65;16.25;;;;;;;0.61;100.00;100819.03;5053317;28;20040;-72
2023/03/04 05:48:19;;;;;;;37.28;16.83;;;;;;;0.59;100.00;100819.13;5056653;28;20036;-72
2023/03/04 05:50:44;;;;;;;30.98;15.95;;;;;;;0.62;100.00;100820.72;5058249;28;20070;-72
2023/03/04 05:53:10;;;;;;;29.52;16.17;;;;;;;0.59;100.00;100820.84;5052549;28;20163;-72
2023/03/04 05:55:35;;;;;;;36.85;18.40;;;;;;;0.57;100.00;100818.34;5054505;28;20469;-72
2023/03/04 05:58:01;;;;;;;39.85;17.85;;;;;;;0.60;100.00;100820.78;5058791;28;20126;-72
2023/03/04 06:00:26;;;;;;;32.13;15.50;;;;;;;0.59;100.00;100818.28;5058784;28;20066;-72
2023/03/04 06:02:52;;;;;;;29.02;15.80;;;;;;;0.61;100.00;100819.03;5054183;28;20371;-72
2023/03/04 06:05:18;;;;;;;34.95;16.40;;;;;;;0.66;100.00;100824.78;5056315;28;20103;-72
2023/03/04 06:07:44;;;;;;;31.45;16.35;;;;;;;0.72;100.00;100833.94;5054453;28;20426;-72
2023/03/04 06:10:12;;;;;;;33.25;18.42;;;;;;;0.72;100.00;100837.31;5052214;28;20056;-72
2023/03/04 06:12:38;;;;;;;33.72;18.17;;;;;;;0.74;100.00;100832.94;5055144;28;20151;-72
2023/03/04 06:15:04;;;;;;;30.00;17.23;;;;;;;0.80;100.00;100840.34;5051229;28;20543;-72
2023/03/04 06:17:30;;;;;;;34.20;18.52;;;;;;;0.78;100.00;100831.91;5049508;28;20200;-72
2023/03/04 06:19:56;;;;;;;43.80;21.70;;;;;;;0.83;100.00;100845.34;5052359;28;20112;-71
2023/03/04 06:22:21;;;;;;;46.17;24.85;;;;;;;0.93;100.00;100840.59;5057260;28;20040;-71
2023/03/04 06:24:47;;;;;;;40.08;22.50;;;;;;;1.04;100.00;100842.63;5056484;28;20036;-72
2023/03/04 06:27:12;;;;;;;39.83;23.38;;;;;;;1.09;100.00;100835.53;5056558;28;20438;-72
2023/03/04 06:29:38;;;;;;;38.78;19.85;;;;;;;1.10;100.00;100842.34;5057485;28;20452;-71
2023/03/04 06:32:04;;;;;;;37.22;20.45;;;;;;;1.17;100.00;100843.69;5054635;28;20033;-72
2023/03/04 06:34:29;;;;;;;40.80;20.48;;;;;;;1.35;100.00;100847.94;5056372;28;20043;-72
2023/03/04 06:36:54;;;;;;;35.58;20.90;;;;;;;1.58;100.00;100846.75;5055393;28;20116;-71
2023/03/04 06:39:20;;;;;;;33.08;19.83;;;;;;;1.73;100.00;100850.28;5059337;28;20028;-71
2023/03/04 06:41:45;;;;;;;38.33;20.02;;;;;;;1.89;100.00;100843.44;5061330;28;20040;-72
2023/03/04 06:44:11;;;;;;;39.50;21.77;;;;;;;2.09;100.00;100850.09;5057221;28;20410;-72
2023/03/04 06:46:36;;;;;;;39.47;21.23;;;;;;;2.28;100.00;100841.34;5061977;28;20036;-72
2023/03/04 06:49:02;;;;;;;39.45;21.73;;;;;;;2.52;100.00;100846.88;5054103;28;20426;-72
2023/03/04 06:51:27;;;;;;;36.45;22.25;;;;;;;3.08;100.00;100842.03;5065178;28;20029;-71
2023/03/04 06:53:53;;;;;;;38.53;22.13;;;;;;;3.50;100.00;100842.13;5057785;28;20095;-72
2023/03/04 06:56:19;;;;;;;33.53;19.13;;;;;;;3.73;100.00;100842.53;5060804;28;20020;-71
2023/03/04 06:58:45;;;;;;;40.95;20.95;;;;;;;4.03;100.00;100843.22;5058855;28;20102;-71
2023/03/04 07:01:15;;;;;;;37.92;19.50;;;;;;;4.89;98.86;100836.09;5060145;28;20476;-72
2023/03/04 07:03:40;;;;;;;38.60;20.08;;;;;;;5.80;93.19;100842.06;5059498;28;20032;-72
2023/03/04 07:06:08;;;;;;;38.45;19.63;;;;;;;6.89;87.60;100838.66;5052554;28;20499;-71
2023/03/04 07:08:34;;;;;;;33.33;18.42;;;;;;;7.92;81.97;100830.81;5053617;28;20032;-72
2023/03/04 07:10:59;;;;;;;34.80;19.08;;;;;;;8.06;79.60;100842.69;5039316;28;20037;-72
2023/03/04 07:13:24;;;;;;;35.28;17.75;;;;;;;7.58;80.58;100836.91;5057002;28;20127;-72
2023/03/04 07:15:50;;;;;;;36.65;18.98;;;;;;;7.25;80.71;100835.94;5062474;28;20419;-72
2023/03/04 07:18:15;;;;;;;29.65;18.00;;;;;;;7.37;80.11;100841.13;5056304;28;20181;-72
2023/03/04 07:20:41;;;;;;;47.72;21.85;;;;;;;8.04;77.00;100835.97;5047530;28;20120;-72
2023/03/04 07:23:06;;;;;;;45.83;21.92;;;;;;;8.45;73.31;100838.78;5061015;28;20362;-72
2023/03/04 07:25:31;;;;;;;46.42;23.20;;;;;;;8.64;72.71;100835.53;5065110;28;21901;-72
2023/03/04 07:27:57;;;;;;;45.90;22.88;;;;;;;8.74;72.40;100844.25;5057498;28;20028;-72
2023/03/04 07:30:22;;;;;;;42.20;21.90;;;;;;;8.75;72.17;100834.69;5065747;28;20122;-72
2023/03/04 07:32:48;;;;;;;37.67;21.42;;;;;;;8.51;72.86;100845.25;5058384;28;20020;-72
2023/03/04 07:35:13;;;;;;;41.90;23.15;;;;;;;7.91;74.01;100838.72;5056227;28;20025;-72
2023/03/04 07:37:39;;;;;;;38.20;19.77;;;;;;;7.19;76.70;100840.72;5063464;28;20028;-72
2023/03/04 07:40:07;;;;;;;28.77;18.13;;;;;;;6.75;78.85;100842.22;5065269;28;20101;-72
2023/03/04 07:42:32;;;;;;;35.78;18.90;;;;;;;6.75;78.66;100841.41;5064239;28;20031;-72
2023/03/04 07:44:58;;;;;;;43.67;22.55;;;;;;;7.39;77.36;100841.84;5063235;28;20021;-72
2023/03/04 07:47:24;;;;;;;42.35;21.17;;;;;;;7.32;77.99;100841.47;5068333;28;20417;-72
2023/03/04 07:49:49;;;;;;;39.72;19.92;;;;;;;7.32;78.14;100839.72;5063768;28;20032;-72
2023/03/04 07:52:15;;;;;;;32.25;18.75;;;;;;;7.09;78.91;100842.38;5066151;28;20567;-72
2023/03/04 07:54:41;;;;;;;32.53;19.30;;;;;;;7.02;79.43;100841.16;5065042;28;20048;-72
2023/03/04 07:57:06;;;;;;;32.30;17.05;;;;;;;7.06;79.20;100834.84;5058702;28;20025;-72
2023/03/04 07:59:31;;;;;;;32.70;18.70;;;;;;;7.05;79.13;100835.78;5064135;28;20025;-72
2023/03/04 08:01:57;;;;;;;28.35;15.82;;;;;;;7.16;77.61;100836.59;5058850;28;20167;-72
2023/03/04 08:04:22;;;;;;;32.63;16.15;;;;;;;7.17;78.15;100835.66;5063627;28;20032;-72
2023/03/04 08:06:48;;;;;;;28.90;14.80;;;;;;;7.19;77.58;100832.97;5062533;28;20032;-72
2023/03/04 08:09:13;;;;;;;23.70;15.68;;;;;;;7.28;77.01;100840.06;5061580;28;20479;-71
2023/03/04 08:11:40;;;;;;;22.90;15.32;;;;;;;7.34;76.77;100834.41;5061427;28;20041;-72
2023/03/04 08:14:06;;;;;;;25.77;15.23;;;;;;;7.39;76.00;100832.31;5061790;28;20063;-72
2023/03/04 08:16:31;;;;;;;27.85;15.27;;;;;;;7.48;75.82;100834.22;5063000;28;20206;-72
2023/03/04 08:18:59;;;;;;;26.98;15.27;;;;;;;7.48;75.99;100836.81;5064776;28;20416;-72
2023/03/04 08:21:25;;;;;;;29.15;16.85;;;;;;;7.63;75.39;100829.63;5060057;28;20062;-72
2023/03/04 08:23:52;;;;;;;24.10;15.30;;;;;;;7.73;74.49;100822.78;5058100;28;20472;-68
2023/03/04 08:26:24;;;;;;;25.42;15.18;;;;;;;7.79;73.02;100824.91;5058170;28;20491;-72
2023/03/04 08:28:49;;;;;;;29.73;16.33;;;;;;;7.76;73.36;100819.97;5056225;28;20037;-72
2023/03/04 08:31:16;;;;;;;24.65;15.20;;;;;;;7.86;73.04;100820.91;5054025;28;20056;-71
2023/03/04 08:33:42;;;;;;;23.75;14.88;;;;;;;7.94;72.53;100812.53;5057151;28;20036;-71
2023/03/04 08:36:08;;;;;;;25.23;16.13;;;;;;;8.05;71.92;100815.09;5058409;28;20052;-71
2023/03/04 08:38:34;;;;;;;30.27;16.00;;;;;;;8.02;72.06;100810.19;5056823;28;20037;-71
2023/03/04 08:41:01;;;;;;;25.90;15.68;;;;;;;8.06;72.54;100808.13;5058307;28;20448;-71
2023/03/04 08:43:26;;;;;;;25.13;16.02;;;;;;;8.14;72.05;100808.38;5056280;28;20036;-71
2023/03/04 08:45:53;;;;;;;24.08;15.70;;;;;;;8.15;70.94;100812.63;5061404;28;20032;-71
2023/03/04 08:48:19;;;;;;;30.77;17.48;;;;;;;8.32;69.93;100807.78;5059955;28;20020;-71
2023/03/04 08:50:46;;;;;;;25.42;15.95;;;;;;;8.48;69.94;100811.75;5055059;28;20476;-71
2023/03/04 08:53:12;;;;;;;25.17;15.70;;;;;;;8.52;69.73;100798.38;5056128;28;20043;-71
2023/03/04 08:55:39;;;;;;;25.55;14.30;;;;;;;9.01;66.86;100804.78;5061490;28;20783;-71
2023/03/04 08:58:06;;;;;;;23.67;13.15;;;;;;;10.02;63.65;100799.66;5057030;28;20342;-71
2023/03/04 09:00:33;;;;;;;25.70;14.15;;;;;;;10.61;61.63;100801.44;5066317;28;20032;-71
2023/03/04 09:02:58;;;;;;;26.05;14.35;;;;;;;10.98;59.92;100791.97;5058738;28;20158;-71
2023/03/04 09:05:24;;;;;;;26.02;14.82;;;;;;;11.29;58.68;100794.38;5063941;28;20108;-71
2023/03/04 09:07:50;;;;;;;25.58;16.10;;;;;;;10.09;62.17;100785.16;5064020;28;20056;-72
2023/03/04 09:10:15;;;;;;;22.70;14.18;;;;;;;9.48;64.91;100795.63;5055495;28;20044;-71
2023/03/04 09:12:41;;;;;;;21.45;13.98;;;;;;;9.19;64.98;100798.06;5058893;28;20504;-71
2023/03/04 09:15:07;;;;;;;24.38;14.13;;;;;;;9.17;64.62;100788.75;5064278;28;20029;-71
2023/03/04 09:17:32;;;;;;;27.38;14.88;;;;;;;9.15;65.14;100791.47;5055224;28;20032;-71
2023/03/04 09:19:58;;;;;;;23.35;13.35;;;;;;;9.17;65.05;100792.19;5054746;28;20021;-71
2023/03/04 09:22:23;;;;;;;21.73;13.00;;;;;;;9.10;65.78;100788.44;5064350;28;20025;-71
2023/03/04 09:24:49;;;;;;;23.23;13.20;;;;;;;9.13;65.89;100782.97;5059767;28;20033;-71
2023/03/04 09:27:14;;;;;;;21.20;12.77;;;;;;;9.07;66.93;100783.50;5062516;28;20033;-71
2023/03/04 09:29:42;;;;;;;21.17;13.25;;;;;;;8.92;67.52;100771.78;5059532;28;20036;-71
2023/03/04 09:32:07;;;;;;;22.77;13.07;;;;;;;8.85;68.03;100766.25;5063589;28;20089;-71
2023/03/04 09:34:32;;;;;;;21.40;13.43;;;;;;;8.93;67.74;100766.47;5064406;28;20032;-72
2023/03/04 09:36:58;;;;;;;23.52;12.60;;;;;;;8.99;67.59;100758.13;5060042;28;20133;-73
2023/03/04 09:39:23;;;;;;;24.70;13.10;;;;;;;9.07;67.72;100761.88;5058860;28;20056;-72
2023/03/04 09:41:55;;;;;;;22.98;12.50;;;;;;;9.09;68.01;100753.00;5059431;28;20109;-73
2023/03/04 09:44:22;;;;;;;25.27;13.38;;;;;;;9.13;67.69;100756.16;5067730;28;20078;-73
2023/03/04 09:46:51;;;;;;;17.38;11.20;;;;;;;9.14;67.88;100750.00;5056853;28;20494;-70
2023/03/04 09:49:19;;;;;;;26.83;13.73;;;;;;;9.09;67.88;100740.00;5062576;28;21902;-70
2023/03/04 09:51:52;;;;;;;19.13;11.30;;;;;;;9.15;68.08;100754.25;5060094;28;20203;-70
2023/03/04 09:54:46;;;;;;;21.08;12.57;;;;;;;9.21;67.17;100749.38;5061642;28;20508;-70
2023/03/04 09:57:26;;;;;;;21.08;12.43;;;;;;;9.33;67.10;100739.72;5057935;28;20039;-69
2023/03/04 10:00:04;;;;;;;22.75;12.15;;;;;;;9.44;67.14;100749.22;5061577;28;20121;-69
2023/03/04 10:02:57;;;;;;;22.85;13.07;;;;;;;9.44;66.25;100744.84;5061930;28;20036;-69
2023/03/04 10:05:25;;;;;;;21.48;13.20;;;;;;;9.64;66.11;100738.75;5061151;28;20032;-68
2023/03/04 10:08:00;;;;;;;22.42;12.80;;;;;;;9.84;64.63;100731.84;5060404;28;20116;-68
2023/03/04 10:10:32;;;;;;;22.40;13.63;;;;;;;9.97;64.24;100731.56;5059406;28;20458;-68
2023/03/04 10:13:00;;;;;;;20.50;10.90;;;;;;;10.05;64.54;100728.28;5060264;28;20431;-68
2023/03/04 10:15:45;;;;;;;20.45;12.43;;;;;;;9.99;63.39;100735.69;5060678;28;20029;-69
2023/03/04 10:18:20;;;;;;;22.67;11.57;;;;;;;9.99;63.61;100737.47;5061146;28;20032;-68
2023/03/04 10:20:53;;;;;;;20.65;12.02;;;;;;;10.01;63.16;100727.75;5057345;28;20398;-68
2023/03/04 10:23:23;;;;;;;17.27;10.85;;;;;;;10.03;63.74;100725.81;5060699;28;20063;-70
2023/03/04 10:25:52;;;;;;;17.80;11.48;;;;;;;10.13;63.07;100721.47;5062177;28;20352;-70
2023/03/04 10:28:24;;;;;;;17.83;11.20;;;;;;;10.32;62.60;100714.66;5059239;28;20044;-70
2023/03/04 10:30:50;;;;;;;19.02;11.05;;;;;;;10.39;61.93;100715.75;5054597;28;20404;-69
2023/03/04 10:33:20;;;;;;;18.92;11.60;;;;;;;10.34;61.46;100708.34;5058600;28;20039;-68
2023/03/04 10:35:59;;;;;;;21.42;10.68;;;;;;;10.32;59.49;100709.44;5053328;28;20052;-71
2023/03/04 10:38:25;;;;;;;20.30;11.35;;;;;;;10.47;59.67;100702.84;5056841;28;20432;-70
2023/03/04 10:40:50;;;;;;;18.08;11.13;;;;;;;10.44;60.17;100703.13;5057901;28;20057;-72
2023/03/04 10:43:18;;;;;;;16.13;9.75;;;;;;;10.39;60.59;100697.53;5063404;28;20060;-73
2023/03/04 10:45:44;;;;;;;17.65;11.02;;;;;;;10.43;60.82;100694.47;5057563;28;20480;-73
2023/03/04 10:48:21;;;;;;;18.75;10.38;;;;;;;10.43;60.58;100696.25;5062891;28;20040;-73
2023/03/04 10:50:47;;;;;;;15.50;10.10;;;;;;;10.46;60.78;100688.19;5057826;28;20033;-73
2023/03/04 10:53:29;;;;;;;16.45;10.02;;;;;;;10.42;59.26;100682.41;5061246;28;20116;-73
2023/03/04 10:55:55;;;;;;;18.70;10.60;;;;;;;10.54;59.88;100680.50;5060776;28;20583;-73
2023/03/04 10:58:20;;;;;;;20.40;10.70;;;;;;;10.51;59.84;100679.00;5062740;28;20032;-72
2023/03/04 11:00:59;;;;;;;17.60;9.45;;;;;;;10.50;59.79;100676.53;5052424;28;20104;-74
2023/03/04 11:03:31;;;;;;;16.15;9.80;;;;;;;10.49;60.27;100680.09;5056848;28;20044;-74
2023/03/04 11:06:12;;;;;;;15.40;9.30;;;;;;;10.57;59.58;100672.41;5064267;28;20108;-73
2023/03/04 11:08:40;;;;;;;16.52;9.95;;;;;;;10.69;59.73;100658.25;5068750;28;20495;-74